LEMD

Adolfo Suárez Madrid–Barajas Airport

Madrid, Spain
TAF LEMD 251100Z 2512/2618 VRB05KT CAVOK TX30/2515Z TN17/2606Z PROB40 TEMPO 2519/2601 14010KT TEMPO 2612/2618 FEW040TCU
Issued Valid From Valid To
Sep-25 @ 11:00 UTC
(7 hours ago)
Sep-25 @ 12:00 UTC
(6 hours ago)
Sep-26 @ 18:00 UTC
(in 24 hours)
Sep-25 @ 12:00 to Sep-26 @ 18:00
TAF LEMD 251100Z 2512/2618 VRB05KT CAVOK TX30/2515Z TN17/2606Z
Wind Visibility Clouds
Variable at 5 knots 10,000+ meters
  • No significant clouds
Temporary  (Probability 40%) Sep-25 @ 19:00 to Sep-26 @ 01:00
PROB40 TEMPO 2519/2601 14010KT
Wind
140° at 10 knots
Temporary Sep-26 @ 12:00 to Sep-26 @ 18:00
TEMPO 2612/2618 FEW040TCU
Clouds
  • Few at 4,000' AGL
TAF LEMD 251100Z 2512/2618 VRB05KT CAVOK TX30/2515Z TN17/2606Z PROB40 TEMPO 2519/2601 14010KT TEMPO 2612/2618 FEW040TCU
Issued Sep-25 @ 11:00 UTC
(7 hours ago)
Valid From Sep-25 @ 12:00 UTC
(6 hours ago)
Valid To Sep-26 @ 18:00 UTC
(in 24 hours)
Sep-25 @ 12:00 - Sep-26 @ 18:00
Wind Visibility
Variable at 5 knots 10,000+ meters
Clouds
  • No significant clouds
Probability 40% Temporary Sep-25 @ 19:00 - Sep-26 @ 01:00
Wind
140° at 10 knots
Temporary Sep-26 @ 12:00 - Sep-26 @ 18:00
Clouds
  • Few at 4,000' AGL